Time;durP1;ratioP1;P1;durP2;ratioP2;P2;SDS_P1;SDS_P2;PMS_P1;PMS_P2;Temp;Humidity;BMP_temperature;BMP_pressure;BME280_temperature;BME280_humidity;BME280_pressure;Samples;Min_cycle;Max_cycle;Signal;HPM_P1;HPM_P2
2021/12/14 00:00:39;;;;;;;46.50;20.35;;;8.30;99.90;;;;;;5110057;28;20046;-71
2021/12/14 00:03:06;;;;;;;48.97;22.00;;;8.30;99.90;;;;;;5111099;28;20074;-72
2021/12/14 00:05:32;;;;;;;52.90;22.85;;;8.30;99.90;;;;;;5111058;28;20088;-70
2021/12/14 00:08:01;;;;;;;47.92;22.02;;;8.30;99.90;;;;;;5110732;28;20118;-72
2021/12/14 00:13:18;;;;;;;51.45;23.25;;;8.30;99.90;;;;;;5107231;27;20126;-71
2021/12/14 00:15:44;;;;;;;56.53;22.42;;;8.30;99.90;;;;;;5110927;27;20114;-74
2021/12/14 00:18:13;;;;;;;50.75;23.17;;;8.30;99.90;;;;;;5116621;27;20129;-72
2021/12/14 00:21:08;;;;;;;51.60;23.80;;;8.30;99.90;;;;;;5114424;27;20027;-72
2021/12/14 00:26:21;;;;;;;52.67;23.02;;;8.30;99.90;;;;;;5111088;27;20453;-72
2021/12/14 00:28:48;;;;;;;54.40;24.30;;;8.30;99.90;;;;;;5114632;27;20043;-71
2021/12/14 00:31:17;;;;;;;52.85;24.38;;;8.30;99.90;;;;;;5113341;27;20043;-70
2021/12/14 00:33:45;;;;;;;55.80;24.25;;;8.30;99.90;;;;;;5112948;27;20598;-73
2021/12/14 00:36:12;;;;;;;55.72;23.73;;;8.30;99.90;;;;;;5114358;27;20355;-73
2021/12/14 00:38:39;;;;;;;52.28;24.25;;;8.30;99.90;;;;;;5114099;27;20045;-70
2021/12/14 00:41:20;;;;;;;53.60;23.77;;;8.30;99.90;;;;;;5111591;27;20042;-71
2021/12/14 00:43:46;;;;;;;55.03;24.42;;;8.30;99.90;;;;;;5113475;27;20039;-71
2021/12/14 00:46:13;;;;;;;57.58;23.92;;;8.30;99.90;;;;;;5113887;27;20051;-70
2021/12/14 00:48:40;;;;;;;52.78;23.30;;;8.30;99.90;;;;;;5109552;27;20047;-71
2021/12/14 00:51:07;;;;;;;62.30;24.92;;;8.30;99.90;;;;;;5115821;27;20485;-73
2021/12/14 00:53:34;;;;;;;55.63;23.77;;;8.30;99.90;;;;;;5114272;27;20684;-70
2021/12/14 00:56:03;;;;;;;54.20;24.92;;;8.30;99.90;;;;;;5115173;27;20039;-70
2021/12/14 00:58:29;;;;;;;54.78;24.38;;;8.30;99.90;;;;;;5113381;27;20050;-72
2021/12/14 01:01:04;;;;;;;58.17;24.73;;;8.30;99.90;;;;;;5113085;27;20051;-71
2021/12/14 01:03:32;;;;;;;62.40;25.08;;;8.30;99.90;;;;;;5124921;27;20130;-71
2021/12/14 01:05:59;;;;;;;52.67;24.20;;;8.30;99.90;;;;;;5110896;27;20455;-69
2021/12/14 01:08:28;;;;;;;56.35;25.13;;;8.30;99.90;;;;;;5113451;27;20039;-70
2021/12/14 01:11:06;;;;;;;58.72;24.42;;;8.30;99.90;;;;;;5113814;27;20031;-70
2021/12/14 01:13:37;;;;;;;53.92;23.10;;;8.30;99.90;;;;;;5133039;27;20068;-73
2021/12/14 01:16:16;;;;;;;59.90;25.20;;;8.30;99.90;;;;;;5114795;27;20075;-71
2021/12/14 01:18:59;;;;;;;60.63;24.85;;;8.30;99.90;;;;;;5113527;27;20035;-71
2021/12/14 01:24:20;;;;;;;54.97;23.70;;;8.20;99.90;;;;;;5114141;27;20501;-74
2021/12/14 01:26:46;;;;;;;62.60;24.88;;;8.30;99.90;;;;;;5114317;27;20493;-70
2021/12/14 01:29:14;;;;;;;57.10;24.42;;;8.30;99.90;;;;;;5113735;27;20049;-71
2021/12/14 01:31:42;;;;;;;57.72;24.63;;;8.20;99.90;;;;;;5114490;27;20050;-72
2021/12/14 01:34:20;;;;;;;59.63;24.95;;;8.20;99.90;;;;;;5113904;27;20080;-71
2021/12/14 01:36:51;;;;;;;60.60;24.45;;;8.20;99.90;;;;;;5105897;27;20046;-72
2021/12/14 01:39:44;;;;;;;54.25;23.50;;;8.20;99.90;;;;;;5110813;27;20039;-72
2021/12/14 01:42:10;;;;;;;57.17;24.85;;;8.20;99.90;;;;;;5113765;27;20415;-70
2021/12/14 01:45:05;;;;;;;53.22;23.05;;;8.10;99.90;;;;;;5110306;27;20035;-71
2021/12/14 01:47:39;;;;;;;56.03;23.55;;;8.10;99.90;;;;;;5111673;27;20046;-71
2021/12/14 01:50:08;;;;;;;60.03;24.73;;;8.10;99.90;;;;;;5111792;27;20134;-70
2021/12/14 01:52:36;;;;;;;64.30;24.73;;;8.10;99.90;;;;;;5113643;27;20035;-72
2021/12/14 01:55:10;;;;;;;58.63;25.05;;;8.10;99.90;;;;;;5111934;27;20427;-72
2021/12/14 01:57:36;;;;;;;64.97;25.73;;;8.10;99.90;;;;;;5103910;27;20035;-70
2021/12/14 02:00:08;;;;;;;63.08;25.60;;;8.20;99.90;;;;;;5093559;27;20035;-73
2021/12/14 02:02:42;;;;;;;60.67;25.20;;;8.20;99.90;;;;;;5113123;27;20038;-71
2021/12/14 02:05:30;;;;;;;64.80;25.65;;;8.10;99.90;;;;;;5113557;27;20392;-72
2021/12/14 02:07:57;;;;;;;65.18;26.50;;;8.20;99.90;;;;;;5112947;27;20062;-72
2021/12/14 02:10:35;;;;;;;66.65;25.60;;;8.20;99.90;;;;;;5110527;27;20554;-72
2021/12/14 02:13:02;;;;;;;67.85;26.98;;;8.20;99.90;;;;;;5107438;27;20392;-71
2021/12/14 02:15:39;;;;;;;63.33;27.15;;;8.20;99.90;;;;;;5093033;27;20070;-71
2021/12/14 02:18:21;;;;;;;67.03;26.67;;;8.20;99.90;;;;;;5126946;27;20114;-74
2021/12/14 02:20:58;;;;;;;70.20;28.80;;;8.20;99.90;;;;;;5108499;27;20123;-73
2021/12/14 02:23:24;;;;;;;72.88;28.73;;;8.20;99.90;;;;;;5112798;27;20541;-70
2021/12/14 02:25:53;;;;;;;75.72;28.85;;;8.20;99.90;;;;;;5112220;27;20097;-73
2021/12/14 02:28:21;;;;;;;75.03;29.35;;;8.20;99.90;;;;;;5111274;27;20482;-70
2021/12/14 02:30:49;;;;;;;77.18;30.17;;;8.20;99.90;;;;;;5113234;27;20039;-72
2021/12/14 02:33:34;;;;;;;76.95;29.30;;;8.20;99.90;;;;;;5110055;27;20496;-71
2021/12/14 02:36:03;;;;;;;80.00;31.80;;;8.20;99.90;;;;;;5128393;27;20031;-72
2021/12/14 02:38:29;;;;;;;76.40;30.17;;;8.20;99.90;;;;;;5111432;27;20117;-74
2021/12/14 02:41:01;;;;;;;82.10;32.28;;;8.20;99.90;;;;;;5112628;27;20114;-73
2021/12/14 02:43:47;;;;;;;83.25;30.67;;;8.20;99.90;;;;;;5111649;27;20043;-72
2021/12/14 02:46:20;;;;;;;86.57;31.85;;;8.20;99.90;;;;;;5110276;27;20093;-70
2021/12/14 02:48:48;;;;;;;82.82;32.33;;;8.20;99.90;;;;;;5108800;27;20387;-72
2021/12/14 02:51:23;;;;;;;86.60;32.45;;;8.20;99.90;;;;;;5095991;27;20359;-70
2021/12/14 02:53:53;;;;;;;88.10;32.58;;;8.20;99.90;;;;;;5111195;27;20039;-73
2021/12/14 02:56:23;;;;;;;83.88;31.67;;;8.20;99.90;;;;;;5111558;27;20027;-73
2021/12/14 02:58:54;;;;;;;88.10;33.00;;;8.20;99.90;;;;;;5110151;27;20058;-70
2021/12/14 03:01:20;;;;;;;92.53;32.47;;;8.20;99.90;;;;;;5094131;27;20042;-71
2021/12/14 03:03:45;;;;;;;96.35;34.40;;;8.20;99.90;;;;;;5109527;27;20035;-70
2021/12/14 03:06:19;;;;;;;86.07;32.10;;;8.20;99.90;;;;;;5110938;27;20062;-70
2021/12/14 03:08:56;;;;;;;85.40;33.25;;;8.20;99.90;;;;;;5112100;27;20043;-70
2021/12/14 03:11:21;;;;;;;91.75;34.25;;;8.20;99.90;;;;;;5110814;27;20027;-69
2021/12/14 03:13:51;;;;;;;85.55;32.63;;;8.20;99.90;;;;;;5112222;27;20617;-73
2021/12/14 03:16:31;;;;;;;95.55;33.72;;;8.20;99.90;;;;;;5111688;27;20127;-71
2021/12/14 03:18:58;;;;;;;91.55;33.53;;;8.20;99.90;;;;;;5106495;27;20086;-71
2021/12/14 03:21:31;;;;;;;92.97;35.33;;;8.20;99.90;;;;;;5110292;27;20064;-71
2021/12/14 03:24:03;;;;;;;97.40;34.75;;;8.20;99.90;;;;;;5110135;27;20468;-70
2021/12/14 03:26:31;;;;;;;99.78;35.33;;;8.20;99.90;;;;;;5091633;27;20095;-70
2021/12/14 03:29:03;;;;;;;101.70;35.30;;;8.20;99.90;;;;;;5111622;27;20031;-69
2021/12/14 03:31:30;;;;;;;100.70;35.38;;;8.20;99.90;;;;;;5111270;27;20035;-71
2021/12/14 03:34:19;;;;;;;103.70;35.92;;;8.20;99.90;;;;;;5110586;27;20367;-73
2021/12/14 03:36:55;;;;;;;101.20;33.33;;;8.10;99.90;;;;;;5125535;27;20046;-73
2021/12/14 03:39:43;;;;;;;95.07;34.00;;;8.10;99.90;;;;;;5110081;27;20027;-74
2021/12/14 03:42:27;;;;;;;98.22;35.00;;;8.10;99.90;;;;;;5111898;28;20413;-72
2021/12/14 03:44:57;;;;;;;96.63;35.58;;;8.10;99.90;;;;;;5108870;28;20035;-73
2021/12/14 03:47:36;;;;;;;101.70;36.00;;;8.10;99.90;;;;;;5111505;27;20133;-73
2021/12/14 03:50:07;;;;;;;102.97;35.17;;;8.10;99.90;;;;;;5110966;28;20075;-72
2021/12/14 03:52:37;;;;;;;97.68;36.83;;;8.10;99.90;;;;;;5111008;28;20039;-72
2021/12/14 03:55:27;;;;;;;99.65;34.95;;;8.10;99.90;;;;;;5112333;28;20115;-71
2021/12/14 03:57:53;;;;;;;102.13;35.45;;;8.10;99.90;;;;;;5102334;27;20047;-75
2021/12/14 04:00:31;;;;;;;104.20;36.63;;;8.10;99.90;;;;;;5103684;27;20046;-69
2021/12/14 04:03:00;;;;;;;103.95;37.22;;;8.10;99.90;;;;;;5108702;28;20039;-71
2021/12/14 04:05:26;;;;;;;105.82;38.20;;;8.10;99.90;;;;;;5109308;28;20081;-71
2021/12/14 04:07:52;;;;;;;102.03;37.83;;;8.10;99.90;;;;;;5086376;28;20075;-73
2021/12/14 04:10:22;;;;;;;97.60;33.63;;;8.10;99.90;;;;;;5111661;28;20089;-71
2021/12/14 04:12:49;;;;;;;104.82;36.42;;;8.10;99.90;;;;;;5111489;28;20043;-72
2021/12/14 04:15:15;;;;;;;100.30;36.60;;;8.10;99.90;;;;;;5091476;28;20549;-75
2021/12/14 04:17:40;;;;;;;104.35;37.17;;;8.10;99.90;;;;;;5111334;28;20027;-75
2021/12/14 04:20:29;;;;;;;112.47;38.28;;;8.00;99.90;;;;;;5108416;27;20085;-72
2021/12/14 04:22:55;;;;;;;95.07;36.47;;;7.90;99.90;;;;;;5110040;28;20066;-72
2021/12/14 04:25:26;;;;;;;106.38;37.00;;;7.90;99.90;;;;;;5109721;28;20110;-73
2021/12/14 04:27:55;;;;;;;104.88;36.95;;;7.80;99.90;;;;;;5109913;28;20078;-74
2021/12/14 04:30:23;;;;;;;100.95;36.33;;;7.80;99.90;;;;;;5110396;28;20047;-73
2021/12/14 04:32:52;;;;;;;110.82;37.38;;;7.80;99.90;;;;;;5111498;28;20092;-71
2021/12/14 04:35:19;;;;;;;106.25;37.28;;;7.80;99.90;;;;;;5107291;28;20063;-73
2021/12/14 04:37:50;;;;;;;107.25;37.30;;;7.80;99.90;;;;;;5111589;28;20037;-72
2021/12/14 04:51:53;;;;;;;113.63;39.45;;;7.80;99.90;;;;;;5108208;27;20023;-74
2021/12/14 04:54:08;;;;;;;106.07;36.65;;;7.90;99.90;;;;;;5109621;28;20086;-72
2021/12/14 04:56:37;;;;;;;115.70;40.22;;;7.90;99.90;;;;;;5109915;28;20070;-68
2021/12/14 04:59:14;;;;;;;116.38;39.25;;;7.90;99.90;;;;;;5112988;27;20069;-73
2021/12/14 05:01:44;;;;;;;116.63;41.60;;;7.90;99.90;;;;;;5115214;27;20043;-71
2021/12/14 05:04:15;;;;;;;113.93;38.65;;;7.90;99.90;;;;;;5113228;27;20035;-72
2021/12/14 05:09:36;;;;;;;115.13;39.15;;;7.90;99.90;;;;;;5066569;27;20138;-74
2021/12/14 05:12:04;;;;;;;102.80;37.58;;;7.90;99.90;;;;;;5096411;27;20051;-71
2021/12/14 05:14:30;;;;;;;109.80;38.67;;;8.00;99.90;;;;;;5106924;27;20045;-73
2021/12/14 05:16:59;;;;;;;121.57;39.47;;;7.90;99.90;;;;;;5096750;27;20039;-72
2021/12/14 05:19:26;;;;;;;109.63;39.28;;;7.90;99.90;;;;;;5113012;27;20035;-74
2021/12/14 05:21:58;;;;;;;117.28;41.28;;;7.90;99.90;;;;;;5096093;27;20095;-72
2021/12/14 05:24:25;;;;;;;118.10;39.70;;;8.00;99.90;;;;;;5115097;27;20066;-72
2021/12/14 05:27:04;;;;;;;117.38;39.60;;;8.00;99.90;;;;;;5106048;27;20063;-71
2021/12/14 05:29:31;;;;;;;116.80;39.63;;;7.90;99.90;;;;;;5112936;27;20342;-74
2021/12/14 05:31:59;;;;;;;115.22;39.72;;;7.90;99.90;;;;;;5112968;27;20494;-73
2021/12/14 05:34:27;;;;;;;123.18;41.90;;;7.90;99.90;;;;;;5109485;27;20031;-71
2021/12/14 05:36:53;;;;;;;118.88;39.45;;;7.90;99.90;;;;;;5114063;27;20046;-74
2021/12/14 05:39:36;;;;;;;121.68;39.88;;;7.90;99.90;;;;;;5112588;27;20045;-71
2021/12/14 05:44:44;;;;;;;129.73;45.25;;;7.90;99.90;;;;;;5114207;27;20091;-71
2021/12/14 05:47:13;;;;;;;133.18;42.83;;;7.90;99.90;;;;;;5107508;27;20492;-70
2021/12/14 05:49:42;;;;;;;125.53;41.15;;;7.90;99.90;;;;;;5112721;27;20092;-71
2021/12/14 05:52:13;;;;;;;138.85;43.70;;;7.90;99.90;;;;;;5112092;27;20401;-71
2021/12/14 05:54:39;;;;;;;140.70;47.65;;;7.90;99.90;;;;;;5113683;27;20092;-74
2021/12/14 05:57:07;;;;;;;131.70;44.95;;;7.90;99.90;;;;;;5112127;27;20420;-71
2021/12/14 05:59:35;;;;;;;140.65;45.38;;;8.00;99.90;;;;;;5111521;27;20109;-73
2021/12/14 06:02:05;;;;;;;144.93;46.17;;;8.00;99.90;;;;;;5113818;27;20116;-73
2021/12/14 06:04:41;;;;;;;138.23;43.72;;;8.00;99.90;;;;;;5110691;27;20402;-73
2021/12/14 06:07:07;;;;;;;131.82;42.53;;;8.00;99.90;;;;;;5112389;27;20129;-73
2021/12/14 06:09:36;;;;;;;140.70;44.90;;;8.00;99.90;;;;;;5109787;28;20035;-71
2021/12/14 06:12:14;;;;;;;140.68;44.72;;;8.00;99.90;;;;;;5113493;27;20099;-70
2021/12/14 06:14:50;;;;;;;145.80;47.30;;;8.00;99.90;;;;;;5112040;27;20027;-70
2021/12/14 06:17:15;;;;;;;140.40;42.85;;;8.00;99.90;;;;;;5110135;27;20118;-73
2021/12/14 06:19:48;;;;;;;143.23;45.20;;;8.00;99.90;;;;;;5113199;27;20118;-74
2021/12/14 06:22:15;;;;;;;;;;;8.00;99.90;;;;;;5111652;27;20058;-71
2021/12/14 06:24:45;;;;;;;144.88;45.35;;;8.00;99.90;;;;;;5113251;27;19966;-74
2021/12/14 06:27:15;;;;;;;139.00;43.10;;;7.90;99.90;;;;;;5111548;27;20045;-72
2021/12/14 06:29:45;;;;;;;140.95;42.65;;;8.00;99.90;;;;;;5129400;27;20032;-72
2021/12/14 06:32:15;;;;;;;142.60;43.85;;;8.00;99.90;;;;;;5109635;27;20281;-71
2021/12/14 06:34:51;;;;;;;142.80;46.38;;;8.00;99.90;;;;;;5113179;27;20058;-71
2021/12/14 06:37:23;;;;;;;138.35;44.55;;;7.90;99.90;;;;;;5109955;27;20035;-74
2021/12/14 06:40:15;;;;;;;;;;;8.00;99.90;;;;;;5112383;27;20039;-70
2021/12/14 06:42:44;;;;;;;133.02;41.88;;;7.90;99.90;;;;;;5106502;27;19919;-72
2021/12/14 06:45:17;;;;;;;145.25;46.53;;;8.00;99.90;;;;;;5113028;27;20063;-70
2021/12/14 06:47:44;;;;;;;143.77;45.53;;;7.90;99.90;;;;;;5112033;27;20489;-75
2021/12/14 06:50:15;;;;;;;148.50;46.33;;;7.90;99.90;;;;;;5093274;27;20035;-71
2021/12/14 06:52:41;;;;;;;142.07;43.72;;;8.00;99.90;;;;;;5111419;27;20042;-72
2021/12/14 06:55:18;;;;;;;137.60;43.25;;;7.90;99.90;;;;;;5111840;27;20043;-70
2021/12/14 06:57:44;;;;;;;144.95;46.35;;;7.90;99.90;;;;;;5111006;27;20027;-73
2021/12/14 07:00:10;;;;;;;144.45;45.88;;;7.90;99.90;;;;;;5108553;27;20039;-70
2021/12/14 07:02:36;;;;;;;151.52;46.30;;;7.90;99.90;;;;;;5092461;27;20095;-72
2021/12/14 07:05:03;;;;;;;150.80;48.65;;;7.90;99.90;;;;;;5105177;27;20084;-70
2021/12/14 07:07:29;;;;;;;147.00;45.95;;;8.00;99.90;;;;;;5114056;27;20506;-71
2021/12/14 07:09:58;;;;;;;148.55;46.25;;;7.90;99.90;;;;;;5111865;27;20166;-72
2021/12/14 07:12:28;;;;;;;157.80;49.55;;;8.00;99.90;;;;;;5112498;27;20465;-71
2021/12/14 07:14:53;;;;;;;164.55;47.95;;;8.00;99.90;;;;;;5110850;27;20530;-71
2021/12/14 07:17:26;;;;;;;153.13;45.78;;;8.00;99.90;;;;;;5112656;27;20110;-74
2021/12/14 07:19:56;;;;;;;153.65;46.60;;;8.00;99.90;;;;;;5110798;27;20573;-71
2021/12/14 07:22:32;;;;;;;162.35;49.83;;;8.00;99.90;;;;;;5110488;27;20409;-71
2021/12/14 07:25:06;;;;;;;156.93;47.47;;;8.00;99.90;;;;;;5112059;27;20115;-73
2021/12/14 07:27:43;;;;;;;159.73;49.85;;;8.00;99.90;;;;;;5109603;27;20042;-73
2021/12/14 07:30:34;;;;;;;156.63;48.08;;;8.00;99.90;;;;;;5112061;27;20534;-74
2021/12/14 07:33:00;;;;;;;156.65;47.97;;;8.00;99.90;;;;;;5111514;27;20439;-70
2021/12/14 07:35:34;;;;;;;158.98;47.42;;;8.00;99.90;;;;;;5093805;28;20289;-71
2021/12/14 07:38:16;;;;;;;168.25;48.75;;;8.00;99.90;;;;;;5110341;28;20165;-74
2021/12/14 07:40:46;;;;;;;155.55;48.28;;;7.90;99.90;;;;;;5111185;27;20031;-71
2021/12/14 07:43:21;;;;;;;160.48;48.65;;;7.90;99.90;;;;;;5109670;27;20086;-69
2021/12/14 07:45:51;;;;;;;150.13;47.60;;;8.00;99.90;;;;;;5095677;27;20092;-71
2021/12/14 07:48:19;;;;;;;153.88;47.17;;;7.90;99.90;;;;;;5112108;27;20035;-74
2021/12/14 07:50:54;;;;;;;157.45;48.05;;;7.90;99.90;;;;;;5093016;28;20096;-72
2021/12/14 07:53:52;;;;;;;153.18;46.72;;;7.90;99.90;;;;;;5110282;28;20039;-71
2021/12/14 07:56:31;;;;;;;148.20;45.63;;;7.90;99.90;;;;;;5083737;28;20042;-70
2021/12/14 07:58:58;;;;;;;142.32;45.95;;;7.90;99.90;;;;;;5109941;28;20031;-72
2021/12/14 08:01:25;;;;;;;145.40;45.38;;;7.90;99.90;;;;;;5108928;28;20043;-68
2021/12/14 08:04:03;;;;;;;154.05;47.95;;;7.90;99.90;;;;;;5111590;28;20035;-72
2021/12/14 08:06:42;;;;;;;151.98;46.03;;;7.90;99.90;;;;;;5110910;28;20039;-70
2021/12/14 08:09:11;;;;;;;153.52;45.67;;;8.00;99.90;;;;;;5108469;27;20035;-71
2021/12/14 08:11:47;;;;;;;148.13;47.05;;;7.90;99.90;;;;;;5107271;28;20066;-71
2021/12/14 08:14:23;;;;;;;145.60;47.65;;;8.00;99.90;;;;;;5107935;28;20489;-71
2021/12/14 08:16:51;;;;;;;152.60;46.55;;;8.00;99.90;;;;;;5110942;28;20158;-71
2021/12/14 08:19:34;;;;;;;154.50;47.90;;;8.00;99.90;;;;;;5106831;28;20497;-69
2021/12/14 08:22:25;;;;;;;143.57;45.75;;;8.00;99.90;;;;;;5108103;27;20051;-72
2021/12/14 08:24:51;;;;;;;138.68;44.08;;;8.00;99.90;;;;;;5108676;28;20453;-72
2021/12/14 08:27:24;;;;;;;161.10;50.10;;;8.10;99.90;;;;;;5111885;28;20062;-70
2021/12/14 08:29:56;;;;;;;147.90;46.53;;;8.00;99.90;;;;;;5104645;27;20045;-72
2021/12/14 08:32:28;;;;;;;144.00;45.72;;;8.10;99.90;;;;;;5098719;27;20039;-72
2021/12/14 08:34:56;;;;;;;150.82;46.15;;;8.10;99.90;;;;;;5110138;27;20035;-71
2021/12/14 08:37:35;;;;;;;153.77;48.03;;;8.10;99.90;;;;;;5114730;27;20416;-72
2021/12/14 08:40:35;;;;;;;142.52;46.70;;;8.20;99.90;;;;;;5108626;27;20074;-72
2021/12/14 08:43:13;;;;;;;136.65;43.25;;;8.20;99.90;;;;;;5115528;27;20092;-71
2021/12/14 08:45:47;;;;;;;144.07;46.35;;;8.20;99.90;;;;;;5113825;27;20043;-70
2021/12/14 08:48:26;;;;;;;136.93;45.40;;;8.20;99.90;;;;;;5114464;27;20505;-71
2021/12/14 08:50:57;;;;;;;144.55;45.33;;;8.30;99.90;;;;;;5113949;27;20035;-71
2021/12/14 08:53:27;;;;;;;141.02;45.38;;;8.20;99.90;;;;;;5114154;27;20037;-71
2021/12/14 08:55:56;;;;;;;143.05;47.42;;;8.30;99.90;;;;;;5115050;27;20070;-68
2021/12/14 08:58:23;;;;;;;135.25;45.22;;;8.30;99.90;;;;;;5112133;27;20031;-68
2021/12/14 09:00:54;;;;;;;132.38;44.20;;;8.30;99.90;;;;;;5112123;27;20043;-71
2021/12/14 09:03:33;;;;;;;129.15;44.15;;;8.30;99.90;;;;;;5090901;27;20042;-71
2021/12/14 09:06:15;;;;;;;130.45;42.58;;;8.30;99.90;;;;;;5109562;27;20047;-72
2021/12/14 09:08:43;;;;;;;133.85;44.13;;;8.30;99.90;;;;;;5106996;27;20043;-71
2021/12/14 09:11:11;;;;;;;131.07;43.97;;;8.30;99.90;;;;;;5114395;27;20031;-72
2021/12/14 09:13:37;;;;;;;134.02;43.88;;;8.30;99.90;;;;;;5111864;27;20035;-70
2021/12/14 09:16:13;;;;;;;127.10;42.42;;;8.40;99.90;;;;;;5110642;27;20088;-69
2021/12/14 09:18:48;;;;;;;132.52;44.28;;;8.30;99.90;;;;;;5112567;27;20485;-71
2021/12/14 09:21:22;;;;;;;124.15;43.42;;;8.40;99.90;;;;;;5110687;27;20055;-73
2021/12/14 09:23:52;;;;;;;123.07;42.53;;;8.30;99.90;;;;;;5097731;27;20758;-71
2021/12/14 09:26:21;;;;;;;132.77;43.30;;;8.30;99.90;;;;;;5110462;27;20042;-71
2021/12/14 09:28:48;;;;;;;130.50;43.53;;;8.40;99.90;;;;;;5109514;27;20142;-73
2021/12/14 09:31:19;;;;;;;121.13;42.42;;;8.40;99.90;;;;;;5111033;27;20434;-70
2021/12/14 09:33:45;;;;;;;122.55;41.45;;;8.40;99.90;;;;;;5112833;27;20039;-71
2021/12/14 09:36:13;;;;;;;121.80;41.38;;;8.40;99.90;;;;;;5111796;27;20474;-72
2021/12/14 09:38:49;;;;;;;121.30;41.03;;;8.40;99.90;;;;;;5101272;27;20516;-73
2021/12/14 09:41:19;;;;;;;118.80;41.10;;;8.40;99.90;;;;;;5109660;27;20126;-72
2021/12/14 09:43:47;;;;;;;120.40;40.58;;;8.50;99.90;;;;;;5108139;27;20039;-74
2021/12/14 09:46:15;;;;;;;123.90;42.33;;;8.50;99.90;;;;;;5109506;27;20174;-71
2021/12/14 09:48:45;;;;;;;125.85;40.80;;;8.50;99.90;;;;;;5111177;27;20058;-73
2021/12/14 09:51:15;;;;;;;116.88;40.70;;;8.50;99.90;;;;;;5109680;27;20038;-70
2021/12/14 09:53:45;;;;;;;116.47;41.60;;;8.60;99.90;;;;;;5112899;27;20073;-72
2021/12/14 09:56:12;;;;;;;115.22;40.00;;;8.60;99.90;;;;;;5112974;27;20054;-71
2021/12/14 09:58:42;;;;;;;115.32;41.55;;;8.60;99.90;;;;;;5110090;27;20042;-69
2021/12/14 10:01:16;;;;;;;117.88;40.42;;;8.60;99.90;;;;;;5112239;27;20538;-73
2021/12/14 10:03:45;;;;;;;111.28;38.95;;;8.60;99.90;;;;;;5113292;27;20100;-73
2021/12/14 10:06:14;;;;;;;107.82;38.15;;;8.60;99.90;;;;;;5107679;27;20073;-73
2021/12/14 10:08:45;;;;;;;115.70;39.38;;;8.70;99.90;;;;;;5108743;27;20478;-75
2021/12/14 10:11:33;;;;;;;119.47;40.90;;;8.60;99.90;;;;;;5108272;27;20462;-73
2021/12/14 10:14:00;;;;;;;120.78;40.35;;;8.60;99.90;;;;;;5112009;27;20042;-76
2021/12/14 10:16:26;;;;;;;124.25;41.63;;;8.60;99.90;;;;;;5111264;27;20035;-72
2021/12/14 10:19:02;;;;;;;130.73;42.35;;;8.60;99.90;;;;;;5111976;27;20765;-71
2021/12/14 10:21:36;;;;;;;131.85;41.38;;;8.50;99.90;;;;;;5111487;27;20466;-70
2021/12/14 10:24:03;;;;;;;136.43;42.08;;;8.50;99.90;;;;;;5109718;27;20398;-71
2021/12/14 10:26:31;;;;;;;134.90;44.38;;;8.50;99.90;;;;;;5114291;27;20064;-70
2021/12/14 10:28:59;;;;;;;138.82;42.58;;;8.50;99.90;;;;;;5113905;27;20582;-71
2021/12/14 10:31:39;;;;;;;130.90;42.15;;;8.50;99.90;;;;;;5114174;27;20039;-73
2021/12/14 10:34:14;;;;;;;143.88;44.60;;;8.50;99.90;;;;;;5114300;27;20046;-74
2021/12/14 10:36:44;;;;;;;143.48;43.25;;;8.50;99.90;;;;;;5095786;27;20466;-73
2021/12/14 10:44:49;;;;;;;137.73;39.70;;;8.50;99.90;;;;;;5103060;27;20132;-71
2021/12/14 10:47:18;;;;;;;150.55;44.08;;;8.50;99.90;;;;;;5114735;27;20047;-71
2021/12/14 10:49:44;;;;;;;141.55;42.70;;;8.50;99.90;;;;;;5109779;27;20386;-72
2021/12/14 10:52:19;;;;;;;144.40;42.70;;;8.50;99.90;;;;;;5112542;27;20049;-70
2021/12/14 10:54:50;;;;;;;129.10;40.88;;;8.40;99.90;;;;;;5113442;27;20043;-71
2021/12/14 10:57:22;;;;;;;148.98;43.50;;;8.50;99.90;;;;;;5109008;27;20038;-72
2021/12/14 10:59:52;;;;;;;143.50;42.53;;;8.50;99.90;;;;;;5114052;27;20470;-72
2021/12/14 11:02:20;;;;;;;149.07;42.97;;;8.50;99.90;;;;;;5110703;27;20505;-72
2021/12/14 11:04:56;;;;;;;155.82;44.45;;;8.50;99.90;;;;;;5108663;28;20492;-73
2021/12/14 11:07:43;;;;;;;155.52;43.05;;;8.50;99.90;;;;;;5090747;27;20072;-73
2021/12/14 11:10:14;;;;;;;161.88;44.10;;;8.50;99.90;;;;;;5115945;27;20127;-72
2021/12/14 11:12:43;;;;;;;155.30;41.78;;;8.50;99.90;;;;;;5112046;27;20036;-71
2021/12/14 11:15:08;;;;;;;160.45;41.40;;;8.50;99.90;;;;;;5113701;27;20035;-72
2021/12/14 11:20:32;;;;;;;166.35;42.75;;;8.60;99.90;;;;;;5096595;28;20130;-70
2021/12/14 11:23:09;;;;;;;149.57;41.35;;;8.60;99.90;;;;;;5099056;27;20047;-73
2021/12/14 11:25:45;;;;;;;162.73;42.30;;;8.60;99.90;;;;;;5113947;27;20047;-72
2021/12/14 11:28:15;;;;;;;164.65;40.65;;;8.70;99.90;;;;;;5113659;27;20486;-70
2021/12/14 11:30:46;;;;;;;156.95;40.35;;;8.70;99.90;;;;;;5113072;27;20035;-71
2021/12/14 11:33:19;;;;;;;150.90;41.25;;;8.70;99.90;;;;;;5112327;27;20035;-70
2021/12/14 11:36:33;;;;;;;146.95;39.60;;;8.70;99.90;;;;;;5093333;27;20058;-72
2021/12/14 11:39:11;;;;;;;131.85;37.45;;;8.70;99.90;;;;;;5049475;28;20047;-70
2021/12/14 11:41:58;;;;;;;140.40;37.90;;;8.70;99.90;;;;;;5113600;28;20133;-69
2021/12/14 11:44:37;;;;;;;139.00;38.33;;;8.70;99.90;;;;;;5106415;28;20092;-70
2021/12/14 11:47:40;;;;;;;151.32;38.97;;;8.70;99.90;;;;;;5113404;27;20043;-70
2021/12/14 11:50:28;;;;;;;138.65;36.45;;;8.70;99.90;;;;;;5112080;28;20083;-70
2021/12/14 11:53:06;;;;;;;130.05;37.40;;;8.70;99.90;;;;;;5108992;28;20051;-70
2021/12/14 11:55:43;;;;;;;133.13;37.90;;;8.70;99.90;;;;;;5096620;28;20378;-71
2021/12/14 11:58:30;;;;;;;143.27;38.50;;;8.70;99.90;;;;;;5113567;28;20059;-72
2021/12/14 12:01:22;;;;;;;141.00;38.28;;;8.70;99.90;;;;;;5110175;27;20043;-71
2021/12/14 12:03:56;;;;;;;139.65;39.47;;;8.70;99.90;;;;;;5106964;28;20039;-69
2021/12/14 12:12:05;;;;;;;143.02;40.78;;;8.70;99.90;;;;;;5119953;27;20070;-72
2021/12/14 12:14:39;;;;;;;154.82;39.75;;;8.80;99.90;;;;;;5117677;27;20475;-72
2021/12/14 12:17:23;;;;;;;152.27;40.17;;;8.70;99.90;;;;;;5122781;27;20039;-70
2021/12/14 12:20:05;;;;;;;133.77;38.38;;;8.70;99.90;;;;;;5096515;28;20039;-70
2021/12/14 12:22:37;;;;;;;135.65;38.47;;;8.80;99.90;;;;;;5100623;27;20035;-70
2021/12/14 12:25:05;;;;;;;;;;;8.80;99.90;;;;;;5110919;27;20035;-72
2021/12/14 12:27:36;;;;;;;;;;;8.80;99.90;;;;;;5117510;27;19930;-72
2021/12/14 12:30:12;;;;;;;;;;;8.80;99.90;;;;;;5099996;27;19927;-70
2021/12/14 12:32:37;;;;;;;;;;;8.80;99.90;;;;;;5117648;27;19915;-72
2021/12/14 12:35:18;;;;;;;;;;;8.80;99.90;;;;;;5098757;27;19926;-72
2021/12/14 12:37:44;;;;;;;;;;;8.80;99.90;;;;;;5117553;27;19919;-74
2021/12/14 12:40:12;;;;;;;;;;;8.80;99.90;;;;;;5105247;27;20317;-69
2021/12/14 12:42:39;;;;;;;;;;;8.80;99.90;;;;;;5102410;27;20285;-71
2021/12/14 12:45:06;;;;;;;;;;;8.80;99.90;;;;;;5132727;27;20057;-73
2021/12/14 12:47:32;;;;;;;;;;;8.90;99.90;;;;;;5115469;27;19915;-72
2021/12/14 12:49:58;;;;;;;;;;;8.90;99.90;;;;;;5115309;27;19923;-70
2021/12/14 12:52:30;;;;;;;;;;;8.90;99.90;;;;;;5115009;27;19926;-68
2021/12/14 12:54:58;;;;;;;;;;;8.90;99.90;;;;;;5105842;27;19919;-71
2021/12/14 12:57:34;;;;;;;;;;;9.00;99.90;;;;;;5117252;27;19955;-71
2021/12/14 13:00:12;;;;;;;;;;;8.90;99.90;;;;;;5112448;27;19915;-72
2021/12/14 13:02:40;;;;;;;;;;;9.00;99.90;;;;;;5117191;27;20345;-72
2021/12/14 13:05:05;;;;;;;;;;;9.00;99.90;;;;;;5109533;27;19915;-72
2021/12/14 13:07:40;;;;;;;;;;;9.00;99.90;;;;;;5116442;27;19919;-71
2021/12/14 13:10:18;;;;;;;;;;;9.00;99.90;;;;;;5116087;27;19919;-72
2021/12/14 13:12:49;;;;;;;;;;;9.00;99.90;;;;;;5115945;27;19925;-72
2021/12/14 13:15:33;;;;;;;;;;;9.00;99.90;;;;;;5116488;27;20006;-70
2021/12/14 13:18:17;;;;;;;;;;;9.00;99.90;;;;;;5116328;27;19962;-72
2021/12/14 13:20:45;;;;;;;;;;;9.00;99.90;;;;;;5115805;27;20356;-71
2021/12/14 13:23:11;;;;;;;;;;;9.10;99.90;;;;;;5116412;27;19915;-70
2021/12/14 13:25:38;;;;;;;;;;;9.00;99.90;;;;;;5117222;27;20371;-71
2021/12/14 13:28:07;;;;;;;;;;;9.00;99.90;;;;;;5115693;27;19919;-71
2021/12/14 13:30:32;;;;;;;;;;;9.00;99.90;;;;;;5097957;28;19962;-72
2021/12/14 13:32:58;;;;;;;;;;;9.00;99.90;;;;;;5115301;27;19968;-72
2021/12/14 13:35:27;;;;;;;;;;;9.10;99.90;;;;;;5116200;27;20441;-72
2021/12/14 13:37:56;;;;;;;;;;;9.00;99.90;;;;;;5098465;27;20482;-71
2021/12/14 13:40:21;;;;;;;;;;;9.10;99.90;;;;;;5116328;27;20011;-71
2021/12/14 13:43:01;;;;;;;;;;;9.10;99.90;;;;;;5114823;27;20407;-71
2021/12/14 13:45:32;;;;;;;;;;;9.10;99.90;;;;;;5086009;27;19939;-72
2021/12/14 13:47:59;;;;;;;;;;;9.10;99.90;;;;;;5114392;27;20010;-70